Aérodrome :
LOGIN :

S'inscrire | Disclaimer

   EN    FR    IT 

 










Légende :    VFR   VFR Marginal   IFR   IFR Intensif   IFR Très Intensif
Visi : 
Plafond : 
>= 8 km
>= 3000ft
5 à 8 km
1000 à 3000 ft
1500m à 5 km
500 à 1000 ft
800 à 1500m
200 à 500 ft
< 800m
< 200 ft
Symboles :   Orages  Brouillard  Fortes neiges  Fortes précipitations  Vent > 20 kt
SIGMETs :   Divers  Orages  Givrage  Turbulence  Onde Orograph.  Cendres Volcan.






- Altitude de l'aérodrome : 120 ft
- Code IATA : MME


EGNV - Durham Tees valley

DERNIER METAR :
  • 241520Z 24025G36KT 9999 FEW015 10/07 Q0991

METARs EXPIRÉS :
  • 241450Z 24023KT 9999 FEW015 SCT022 10/07 Q0992
  • 241420Z 23017G28KT 9999 FEW015 SCT021 10/08 Q0992
  • 241350Z 23020KT 9999 FEW015 SCT020 09/07 Q0993
  • 241320Z 20010KT 9999 FEW012 SCT020 07/06 Q0993
  • 241250Z 20008KT 9999 7000N FEW006 BKN018 04/04 Q0994

TAF TAF EGNV
Valide du 24 à 15h jusqu'au 24 à 22h UTC


241401Z 2415/2422 20010KT 9999 BKN004
BECMG 2415/2417 24022G34KT SCT020
TEMPO 2415/2421 8000 -RA SHRA
ATIS : +44 9012 018 111



MET'MAP, la Météo Aéronautique d'un coup d'oeil ! - Copyright ORBIFLY Décembre 2007 - Disclaimer

ORBIFLY MET'MAP TEAM :

Programmation & Développement : Alexandra Zaïnal
Sur une idée originale de : Baudouin d'Aumeries
Assistance à la programmation : Marc-Olivier Méhu
Soutien technique & logistique : Manuel Goepfert

Contact : metmap@orbifly.com




SOURCES & CREDITS :

   NOAA